Aviation Digital Data Service (ADDS)

Output produced by TAFs form (2204 UTC 18 October 2017)
found at http://www.aviationweather.gov/adds/tafs/
 
METAR text: NSTU 182150Z VRB03KT 12SM FEW017 SCT040 BKN100 28/25 A2978 RMK SLP086 T02750254
Conditions at: NSTU (PAGO PAGO , WS) observed 2150 UTC 18 October 2017
Temperature: 27.5°C (82°F)
Dewpoint: 25.4°C (78°F) [RH = 88%]
Pressure (altimeter): 29.78 inches Hg (1008.5 mb)
[Sea-level pressure: 1008.6 mb]
Winds: variable direction winds at 3 MPH (3 knots; 1.6 m/s)
Visibility: 12 miles (19 km)
Ceiling: 10000 feet AGL
Clouds: few clouds at 1700 feet AGL
scattered clouds at 4000 feet AGL
broken clouds at 10000 feet AGL
Weather: no significant weather observed at this time

Forecast for: NSTU (PAGO PAGO , WS)
Text: NSTU 181728Z 1818/1918 VRB06KT P6SM VCSH SCT015 BKN040 BKN100
Forecast period: 1800 UTC 18 October 2017 to 1800 UTC 19 October 2017
Forecast type: FROM: standard forecast or significant change
Winds: variable direction winds at 7 MPH (6 knots; 3.1 m/s)
Visibility: 6 or more miles (10+ km)
Ceiling: 4000 feet AGL
Clouds: scattered clouds at 1500 feet AGL
broken clouds at 4000 feet AGL
broken clouds at 10000 feet AGL
Weather: VCSH  (showers in vicinity)